Time;durP1;ratioP1;P1;durP2;ratioP2;P2;SDS_P1;SDS_P2;PMS_P1;PMS_P2;Temp;Humidity;BMP_temperature;BMP_pressure;BME280_temperature;BME280_humidity;BME280_pressure;Samples;Min_cycle;Max_cycle;Signal;HPM_P1;HPM_P2
2023/05/24 00:00:16;;;;;;;9.30;4.70;;;;;;;25.44;45.13;99317.00;5037837;28;20044;-65
2023/05/24 00:02:42;;;;;;;8.75;4.47;;;;;;;25.23;45.62;99306.22;5021904;28;20048;-65
2023/05/24 00:05:09;;;;;;;9.52;4.20;;;;;;;25.53;44.62;99307.25;5038061;28;20055;-65
2023/05/24 00:07:38;;;;;;;9.75;4.32;;;;;;;25.75;44.15;99318.84;5038464;28;20262;-65
2023/05/24 00:10:05;;;;;;;8.82;4.82;;;;;;;25.53;44.95;99303.72;5005364;28;20391;-65
2023/05/24 00:12:32;;;;;;;11.40;4.78;;;;;;;25.55;44.86;99307.00;5054563;28;20131;-65
2023/05/24 00:14:58;;;;;;;12.63;5.55;;;;;;;25.29;45.20;99306.00;5021699;28;20529;-65
2023/05/24 00:17:23;;;;;;;8.25;4.90;;;;;;;25.64;44.21;99308.13;5035415;28;20483;-65
2023/05/24 00:19:51;;;;;;;12.75;5.00;;;;;;;25.69;44.04;99300.84;5035794;28;20051;-66
2023/05/24 00:22:19;;;;;;;14.18;4.85;;;;;;;25.76;43.50;99309.59;5019020;28;20254;-65
2023/05/24 00:24:46;;;;;;;14.20;5.00;;;;;;;25.98;43.09;99307.53;5034482;28;20041;-65
2023/05/24 00:27:13;;;;;;;9.98;5.38;;;;;;;25.80;43.78;99299.00;5034518;28;20402;-66
2023/05/24 00:29:39;;;;;;;14.85;4.97;;;;;;;25.54;44.00;99297.22;5050976;28;20056;-66
2023/05/24 00:32:05;;;;;;;10.65;4.32;;;;;;;25.67;43.29;99297.56;5017762;28;20060;-66
2023/05/24 00:34:31;;;;;;;7.63;4.43;;;;;;;25.45;43.22;99291.44;5001620;28;20194;-66
2023/05/24 00:36:57;;;;;;;10.82;4.82;;;;;;;25.28;44.02;99285.31;5018345;28;20132;-66
2023/05/24 00:39:23;;;;;;;13.18;4.63;;;;;;;25.51;43.41;99281.44;5034360;28;20187;-66
2023/05/24 00:41:49;;;;;;;10.35;3.90;;;;;;;25.48;43.20;99279.22;5034317;28;20131;-66
2023/05/24 00:44:15;;;;;;;10.80;4.75;;;;;;;25.54;43.56;99280.91;5001518;28;20096;-66
2023/05/24 00:46:41;;;;;;;9.38;4.18;;;;;;;25.47;43.14;99277.56;5034324;28;20037;-66
2023/05/24 00:49:08;;;;;;;11.80;4.30;;;;;;;25.56;43.39;99278.72;5001873;28;20102;-66
2023/05/24 00:51:33;;;;;;;8.48;4.22;;;;;;;25.49;42.87;99275.41;5001392;28;20045;-66
2023/05/24 00:53:59;;;;;;;13.27;3.95;;;;;;;25.63;42.86;99282.84;5017634;28;20040;-66
2023/05/24 00:56:26;;;;;;;15.02;4.40;;;;;;;25.85;42.23;99269.06;5034524;28;20502;-65
2023/05/24 00:58:53;;;;;;;14.70;4.13;;;;;;;25.70;42.52;99274.44;5017640;28;20099;-65
2023/05/24 01:01:19;;;;;;;10.88;4.85;;;;;;;25.90;42.08;99269.94;5067143;28;20064;-65
2023/05/24 01:03:45;;;;;;;9.57;4.18;;;;;;;25.82;42.49;99269.59;5034312;28;20037;-65
2023/05/24 01:06:14;;;;;;;12.95;4.78;;;;;;;26.15;42.02;99259.16;5017680;28;20077;-65
2023/05/24 01:08:47;;;;;;;13.02;4.70;;;;;;;26.35;41.98;99264.63;5002035;28;20060;-65
2023/05/24 01:11:59;;;;;;;12.27;4.80;;;;;;;26.55;41.33;99266.59;5017787;28;20573;-65
2023/05/24 01:14:35;;;;;;;9.43;4.30;;;;;;;26.36;41.57;99260.84;5046976;28;20060;-65
2023/05/24 01:17:21;;;;;;;14.73;4.90;;;;;;;26.49;41.24;99262.25;5024909;28;20056;-66
2023/05/24 01:19:51;;;;;;;13.02;4.97;;;;;;;26.26;41.80;99260.00;5061409;28;20260;-65
2023/05/24 01:22:47;;;;;;;13.80;5.30;;;;;;;26.55;41.22;99268.50;5061895;28;20047;-65
2023/05/24 01:25:44;;;;;;;11.70;4.90;;;;;;;26.69;41.31;99267.75;5077818;28;20082;-64
2023/05/24 01:28:11;;;;;;;14.20;4.47;;;;;;;26.38;41.19;99272.31;5044614;28;20059;-65
2023/05/24 01:30:39;;;;;;;9.13;4.75;;;;;;;26.28;41.10;99264.09;5044251;28;20428;-65
2023/05/24 01:33:05;;;;;;;13.52;4.80;;;;;;;26.16;41.42;99260.78;5077475;28;20055;-66
2023/05/24 01:35:38;;;;;;;12.40;4.93;;;;;;;26.28;41.27;99261.38;5044372;28;20440;-65
2023/05/24 01:38:10;;;;;;;11.32;5.00;;;;;;;26.34;41.38;99265.75;5044436;28;20036;-65
2023/05/24 01:40:37;;;;;;;10.48;4.63;;;;;;;26.37;40.84;99261.66;5044498;28;20500;-65
2023/05/24 01:43:35;;;;;;;20.10;4.93;;;;;;;26.62;40.64;99269.06;5060970;28;20036;-65
2023/05/24 01:46:29;;;;;;;11.80;4.38;;;;;;;26.74;40.12;99265.00;5067158;28;20101;-65
2023/05/24 01:49:22;;;;;;;11.27;4.30;;;;;;;26.70;39.90;99260.38;5038147;28;20048;-65
2023/05/24 01:52:01;;;;;;;14.18;5.25;;;;;;;26.64;40.28;99267.75;5043991;28;20098;-65
2023/05/24 01:54:30;;;;;;;13.23;4.55;;;;;;;26.48;40.44;99261.41;5060762;28;20040;-65
2023/05/24 01:56:57;;;;;;;13.05;4.63;;;;;;;26.47;40.02;99264.41;5060793;28;20048;-65
2023/05/24 01:59:25;;;;;;;10.98;5.13;;;;;;;26.29;40.59;99256.75;5060603;28;20166;-65
2023/05/24 02:01:52;;;;;;;15.95;5.30;;;;;;;26.30;40.08;99259.22;5077395;28;20072;-65
2023/05/24 02:04:19;;;;;;;11.63;4.50;;;;;;;26.18;40.20;99255.09;5060536;28;20511;-65
2023/05/24 02:06:45;;;;;;;12.98;4.63;;;;;;;26.23;39.62;99249.66;5060620;28;20051;-65
2023/05/24 02:09:11;;;;;;;13.13;4.88;;;;;;;26.40;39.56;99248.31;5094791;28;20044;-66
2023/05/24 02:11:37;;;;;;;8.40;4.68;;;;;;;26.44;39.79;99254.06;5060243;28;20043;-66
2023/05/24 02:14:03;;;;;;;17.38;4.95;;;;;;;26.22;39.71;99243.38;5060380;28;20101;-66
2023/05/24 02:16:29;;;;;;;13.00;5.13;;;;;;;26.37;39.73;99251.59;5027636;28;20466;-66
2023/05/24 02:18:56;;;;;;;13.48;5.35;;;;;;;26.49;39.58;99249.41;5059977;28;20060;-65
2023/05/24 02:21:26;;;;;;;11.15;5.40;;;;;;;26.64;39.57;99237.78;5077079;28;20059;-65
2023/05/24 02:23:53;;;;;;;9.48;5.22;;;;;;;26.48;39.39;99246.16;5059776;28;20043;-65
2023/05/24 02:26:19;;;;;;;17.20;5.82;;;;;;;26.39;39.92;99257.59;5043334;28;20032;-66
2023/05/24 02:28:45;;;;;;;11.18;5.00;;;;;;;26.39;39.76;99249.41;5060000;28;20421;-66
2023/05/24 02:31:11;;;;;;;17.75;5.38;;;;;;;26.55;39.60;99252.16;5059874;28;20047;-66
2023/05/24 02:33:38;;;;;;;10.45;5.82;;;;;;;26.52;39.58;99257.06;5059914;28;20044;-65
2023/05/24 02:36:04;;;;;;;17.00;5.45;;;;;;;26.42;39.70;99256.22;5043570;28;20138;-65
2023/05/24 02:38:31;;;;;;;14.07;5.35;;;;;;;26.49;39.47;99254.88;5059996;28;20189;-65
2023/05/24 02:40:57;;;;;;;14.32;5.32;;;;;;;26.60;39.35;99252.16;5026867;28;20040;-66
2023/05/24 02:43:23;;;;;;;14.52;5.20;;;;;;;26.65;39.12;99250.28;5026691;28;20047;-65
2023/05/24 02:45:49;;;;;;;12.00;5.28;;;;;;;26.69;39.18;99239.69;5059554;28;20054;-65
2023/05/24 02:48:14;;;;;;;15.55;5.25;;;;;;;26.57;39.68;99239.91;5059504;28;20339;-66
2023/05/24 02:50:40;;;;;;;10.23;5.18;;;;;;;26.66;39.41;99241.06;5042506;28;20043;-66
2023/05/24 02:53:07;;;;;;;9.98;4.97;;;;;;;26.71;39.44;99235.56;5042875;28;20051;-65
2023/05/24 02:55:33;;;;;;;10.82;4.82;;;;;;;26.81;39.01;99243.78;5076529;28;20459;-66
2023/05/24 02:58:00;;;;;;;11.68;5.03;;;;;;;26.72;39.14;99229.06;5059216;28;20093;-66
2023/05/24 03:00:25;;;;;;;18.55;5.80;;;;;;;26.77;39.32;99233.69;5043070;28;20059;-66
2023/05/24 03:02:54;;;;;;;14.10;5.68;;;;;;;26.95;38.61;99242.13;5059558;28;20040;-65
2023/05/24 03:05:20;;;;;;;11.55;6.00;;;;;;;27.24;38.12;99231.47;5059440;28;20486;-66
2023/05/24 03:07:46;;;;;;;15.63;6.00;;;;;;;27.20;38.19;99231.19;5042453;28;20048;-65
2023/05/24 03:10:12;;;;;;;16.58;5.80;;;;;;;27.19;37.98;99231.47;5059125;28;20045;-66
2023/05/24 03:12:38;;;;;;;11.90;5.53;;;;;;;27.23;38.10;99227.09;5026169;28;20055;-65
2023/05/24 03:15:04;;;;;;;15.57;5.50;;;;;;;27.31;37.86;99227.38;5059481;28;20044;-65
2023/05/24 03:17:32;;;;;;;13.95;5.72;;;;;;;27.24;37.97;99221.38;5056128;28;20061;-67
2023/05/24 03:20:00;;;;;;;20.70;5.82;;;;;;;27.48;37.50;99221.59;5039294;28;20102;-66
2023/05/24 03:22:30;;;;;;;13.32;6.10;;;;;;;27.48;37.92;99219.69;5024419;28;20168;-66
2023/05/24 03:24:57;;;;;;;15.30;6.38;;;;;;;27.52;38.15;99219.97;5022995;28;20064;-66
2023/05/24 03:27:23;;;;;;;13.40;6.43;;;;;;;27.50;38.08;99216.69;5023918;28;20486;-66
2023/05/24 03:29:50;;;;;;;17.92;6.78;;;;;;;27.43;38.27;99200.63;5023192;28;20051;-67
2023/05/24 03:32:19;;;;;;;15.40;6.10;;;;;;;27.30;38.10;99203.94;5023121;28;20135;-67
2023/05/24 03:34:46;;;;;;;13.75;6.05;;;;;;;27.40;38.02;99190.25;5021627;28;20534;-67
2023/05/24 03:37:14;;;;;;;14.43;5.30;;;;;;;27.29;37.94;99209.66;5022860;28;20051;-67
2023/05/24 03:39:41;;;;;;;14.23;5.75;;;;;;;27.38;38.21;99214.28;5022728;28;20037;-67
2023/05/24 03:42:37;;;;;;;14.68;5.60;;;;;;;27.53;38.00;99210.69;5002203;28;20503;-67
2023/05/24 03:45:06;;;;;;;12.68;5.07;;;;;;;27.67;38.28;99206.28;5007263;28;20052;-67
2023/05/24 03:47:32;;;;;;;22.48;6.95;;;;;;;27.46;37.49;99204.72;5015361;28;20056;-66
2023/05/24 03:49:58;;;;;;;15.88;6.43;;;;;;;27.36;37.86;99218.38;4998965;28;20041;-67
2023/05/24 03:52:24;;;;;;;10.48;5.38;;;;;;;27.61;37.75;99210.13;5031464;28;20473;-66
2023/05/24 03:54:50;;;;;;;16.23;5.30;;;;;;;27.88;36.64;99214.13;4998886;28;20041;-66
2023/05/24 03:57:16;;;;;;;10.57;4.95;;;;;;;28.30;35.94;99213.63;5000030;28;20045;-67
2023/05/24 03:59:43;;;;;;;13.00;6.13;;;;;;;28.49;35.49;99219.25;5008570;28;20463;-67
2023/05/24 04:02:09;;;;;;;12.68;5.20;;;;;;;28.68;34.98;99220.19;4997155;28;20057;-66
2023/05/24 04:04:36;;;;;;;13.27;5.65;;;;;;;28.90;34.55;99220.56;5010924;28;20037;-66
2023/05/24 04:07:02;;;;;;;12.55;5.68;;;;;;;29.11;34.41;99222.84;5016454;28;20041;-68
2023/05/24 04:09:29;;;;;;;18.73;5.80;;;;;;;29.28;34.42;99215.03;5014937;28;20049;-68
2023/05/24 04:11:55;;;;;;;16.52;5.75;;;;;;;29.05;34.54;99218.53;5004912;28;20256;-65
2023/05/24 04:14:21;;;;;;;11.98;5.55;;;;;;;28.83;34.50;99212.69;4990698;28;20159;-66
2023/05/24 04:16:47;;;;;;;10.43;5.35;;;;;;;28.72;34.96;99216.63;5011249;28;20103;-67
2023/05/24 04:19:13;;;;;;;15.95;5.20;;;;;;;28.67;34.84;99210.38;4983278;28;20061;-67
2023/05/24 04:21:39;;;;;;;12.88;4.93;;;;;;;28.78;34.99;99210.00;4983318;28;20078;-66
2023/05/24 04:24:05;;;;;;;9.77;5.20;;;;;;;28.79;34.84;99206.16;4976550;28;20054;-66
2023/05/24 04:26:33;;;;;;;15.23;5.30;;;;;;;28.68;35.39;99210.09;4977511;28;20116;-66
2023/05/24 04:28:59;;;;;;;15.55;5.55;;;;;;;28.77;35.12;99205.63;4961280;28;20049;-68
2023/05/24 04:31:28;;;;;;;14.48;5.18;;;;;;;28.62;35.22;99208.50;5007223;28;20144;-66
2023/05/24 04:33:57;;;;;;;10.20;5.22;;;;;;;28.88;34.87;99214.56;4977119;28;20050;-66
2023/05/24 04:36:24;;;;;;;11.23;5.10;;;;;;;28.87;35.06;99216.50;5009455;28;20082;-66
2023/05/24 04:38:54;;;;;;;13.05;5.22;;;;;;;28.91;34.97;99217.53;4993964;28;20081;-68
2023/05/24 04:41:21;;;;;;;10.63;6.32;;;;;;;28.89;35.29;99197.06;4960721;28;20038;-66
2023/05/24 04:43:47;;;;;;;14.15;4.75;;;;;;;28.88;34.57;99212.66;5010353;28;20141;-66
2023/05/24 04:46:13;;;;;;;15.35;5.03;;;;;;;29.09;34.94;99211.38;4992298;28;20037;-65
2023/05/24 04:48:39;;;;;;;11.00;4.63;;;;;;;29.23;34.25;99209.59;5009490;28;20352;-65
2023/05/24 04:51:05;;;;;;;13.45;4.90;;;;;;;29.43;34.28;99214.06;5012820;28;20088;-66
2023/05/24 04:53:31;;;;;;;10.30;5.00;;;;;;;29.46;33.44;99219.75;5028964;28;20144;-66
2023/05/24 04:55:58;;;;;;;12.15;4.70;;;;;;;29.75;32.95;99238.06;5030235;28;20076;-66
2023/05/24 04:58:24;;;;;;;14.95;4.70;;;;;;;29.67;32.52;99222.28;5013747;28;20373;-66
2023/05/24 05:00:50;;;;;;;12.73;4.78;;;;;;;29.92;32.20;99250.19;5029984;28;20132;-66
2023/05/24 05:03:17;;;;;;;10.50;4.82;;;;;;;29.70;31.84;99241.69;5013488;28;20055;-66
2023/05/24 05:05:44;;;;;;;11.75;4.95;;;;;;;29.66;32.08;99245.28;5029587;28;20052;-65
2023/05/24 05:08:09;;;;;;;8.88;4.20;;;;;;;29.52;32.14;99242.41;5030052;28;20502;-66
2023/05/24 05:10:35;;;;;;;14.63;4.53;;;;;;;29.95;31.75;99240.56;5029818;28;20041;-66
2023/05/24 05:13:01;;;;;;;10.43;4.47;;;;;;;30.36;31.33;99250.69;5030044;28;20141;-66
2023/05/24 05:15:28;;;;;;;16.63;5.32;;;;;;;30.61;31.21;99246.78;5030674;28;20064;-65
2023/05/24 05:17:54;;;;;;;10.18;4.10;;;;;;;30.79;30.70;99248.69;5021075;28;20056;-66
2023/05/24 05:20:21;;;;;;;12.02;4.15;;;;;;;31.03;30.68;99246.63;5050095;28;20044;-66
2023/05/24 05:22:48;;;;;;;8.73;4.40;;;;;;;30.53;30.61;99250.19;5016504;28;20504;-66
2023/05/24 05:25:14;;;;;;;12.77;4.65;;;;;;;30.80;30.75;99244.84;5016787;28;20032;-65
2023/05/24 05:27:40;;;;;;;8.88;4.50;;;;;;;30.98;30.44;99250.28;5050881;28;20124;-66
2023/05/24 05:30:07;;;;;;;15.75;4.43;;;;;;;31.06;30.65;99244.13;5050843;28;20056;-66
2023/05/24 05:32:36;;;;;;;9.85;4.40;;;;;;;31.17;30.03;99254.94;5051675;28;20083;-66
2023/05/24 05:35:03;;;;;;;11.02;5.05;;;;;;;31.21;30.12;99248.53;5000155;28;20120;-65
2023/05/24 05:37:30;;;;;;;15.13;4.57;;;;;;;31.09;30.04;99254.50;5049802;28;20131;-66
2023/05/24 05:39:56;;;;;;;12.32;4.40;;;;;;;31.03;30.01;99238.41;5049280;28;20140;-65
2023/05/24 05:42:21;;;;;;;12.63;4.50;;;;;;;30.96;30.01;99243.47;5049233;28;20087;-66
2023/05/24 05:44:48;;;;;;;11.00;4.63;;;;;;;30.92;30.02;99237.78;5065935;28;20049;-65
2023/05/24 05:47:13;;;;;;;8.55;4.45;;;;;;;31.02;29.81;99237.63;5066446;28;20044;-66
2023/05/24 05:49:39;;;;;;;11.40;4.10;;;;;;;31.11;29.92;99244.03;5069859;28;20468;-66
2023/05/24 05:52:05;;;;;;;13.35;4.82;;;;;;;31.29;30.25;99236.03;5069210;28;20050;-66
2023/05/24 05:54:31;;;;;;;10.98;4.32;;;;;;;31.63;29.86;99233.78;5070101;28;20539;-67
2023/05/24 05:56:56;;;;;;;17.73;4.63;;;;;;;31.95;29.27;99237.22;5070035;28;20503;-66
2023/05/24 05:59:22;;;;;;;21.17;4.80;;;;;;;32.01;28.90;99236.03;5072628;28;20040;-66
2023/05/24 06:01:48;;;;;;;9.98;4.00;;;;;;;32.19;29.08;99240.56;5073814;28;20463;-66
2023/05/24 06:04:14;;;;;;;11.18;4.72;;;;;;;32.18;29.11;99236.19;5073809;28;20051;-66
2023/05/24 06:06:40;;;;;;;5.82;3.90;;;;;;;30.95;29.52;99228.94;5023416;28;20119;-66
2023/05/24 06:09:07;;;;;;;6.70;4.10;;;;;;;30.95;30.18;99222.66;5056141;28;20046;-66
2023/05/24 06:11:32;;;;;;;15.20;4.68;;;;;;;31.03;30.27;99219.19;5073209;28;20386;-66
2023/05/24 06:13:58;;;;;;;13.23;4.60;;;;;;;30.75;30.37;99228.47;5072480;28;20037;-66
2023/05/24 06:16:24;;;;;;;7.55;4.22;;;;;;;30.48;30.96;99229.13;5072600;28;20127;-66
2023/05/24 06:18:50;;;;;;;8.90;4.28;;;;;;;30.98;30.20;99219.31;5089785;28;20067;-65
2023/05/24 06:21:16;;;;;;;12.55;4.30;;;;;;;31.47;29.42;99232.44;5093741;28;20048;-66
2023/05/24 06:23:42;;;;;;;15.40;4.00;;;;;;;31.40;29.63;99227.34;5076057;28;20146;-66
2023/05/24 06:26:10;;;;;;;13.38;4.78;;;;;;;31.90;28.81;99231.88;5093605;28;20134;-66
2023/05/24 06:28:36;;;;;;;12.30;4.07;;;;;;;32.45;28.26;99232.59;5059388;28;20144;-67
2023/05/24 06:31:03;;;;;;;12.52;4.10;;;;;;;32.79;27.54;99235.63;5075889;28;20135;-67
2023/05/24 06:33:30;;;;;;;15.27;4.40;;;;;;;33.14;27.19;99232.00;5076040;28;20454;-66
2023/05/24 06:35:56;;;;;;;7.97;4.22;;;;;;;33.36;26.46;99229.19;5075696;28;20519;-66
2023/05/24 06:38:22;;;;;;;8.52;4.15;;;;;;;33.12;26.87;99236.19;5075887;28;20036;-67
2023/05/24 06:40:48;;;;;;;11.80;4.15;;;;;;;33.36;26.65;99231.13;5075457;28;20040;-66
2023/05/24 06:43:13;;;;;;;15.18;4.68;;;;;;;33.65;26.60;99228.69;5058664;28;20040;-66
2023/05/24 06:45:40;;;;;;;17.40;4.72;;;;;;;32.96;26.42;99238.53;5075997;28;20040;-67
2023/05/24 06:48:06;;;;;;;8.82;4.22;;;;;;;33.06;26.56;99224.47;5075261;28;20048;-68
2023/05/24 06:50:32;;;;;;;12.07;5.10;;;;;;;33.09;26.97;99225.81;5058607;28;20044;-67
2023/05/24 06:52:58;;;;;;;9.15;4.30;;;;;;;33.52;26.42;99218.63;5042158;28;20039;-67
2023/05/24 06:55:24;;;;;;;14.07;4.70;;;;;;;34.12;25.90;99227.91;5058763;28;20062;-66
2023/05/24 06:57:50;;;;;;;7.85;4.38;;;;;;;34.66;25.10;99232.81;5042015;28;20062;-67
2023/05/24 07:00:16;;;;;;;12.45;4.93;;;;;;;35.21;24.54;99228.22;5058537;28;20394;-67
2023/05/24 07:02:42;;;;;;;10.00;3.92;;;;;;;35.50;23.75;99227.50;5025776;28;20478;-67
2023/05/24 07:05:11;;;;;;;10.98;4.10;;;;;;;36.10;23.47;99224.47;5058632;28;20062;-67
2023/05/24 07:07:38;;;;;;;14.20;4.40;;;;;;;36.41;23.13;99213.84;5058921;28;20047;-67
2023/05/24 07:10:07;;;;;;;7.07;3.97;;;;;;;36.84;22.10;99226.19;5605916;22;20011;-70
2023/05/24 07:12:33;;;;;;;13.35;4.18;;;;;;;36.97;21.61;99224.25;5046195;28;20160;-69
2023/05/24 07:14:59;;;;;;;8.15;3.70;;;;;;;37.01;21.29;99230.75;5030284;28;20048;-69
2023/05/24 07:17:25;;;;;;;16.88;4.18;;;;;;;36.85;21.75;99222.28;5032118;28;20057;-70
2023/05/24 07:19:51;;;;;;;9.13;4.10;;;;;;;36.45;22.28;99217.56;5031353;28;20174;-70
2023/05/24 07:22:17;;;;;;;9.57;3.35;;;;;;;36.60;21.84;99220.53;5032169;28;20359;-69
2023/05/24 07:24:43;;;;;;;9.18;3.47;;;;;;;37.00;21.27;99226.34;5047942;28;20100;-69
2023/05/24 07:27:08;;;;;;;8.50;3.60;;;;;;;37.20;21.24;99231.03;5033083;28;20056;-69
2023/05/24 07:29:34;;;;;;;10.95;4.13;;;;;;;36.58;21.71;99220.03;4998848;28;20038;-66
2023/05/24 07:32:00;;;;;;;10.25;3.90;;;;;;;36.26;22.05;99231.81;4998165;28;20052;-69
2023/05/24 07:34:28;;;;;;;15.27;4.40;;;;;;;36.12;22.55;99230.47;5031613;28;20041;-69
2023/05/24 07:36:56;;;;;;;7.47;3.75;;;;;;;36.00;22.61;99227.63;5030990;28;20394;-69
2023/05/24 07:39:24;;;;;;;10.27;3.78;;;;;;;35.56;22.96;99224.25;5031271;28;20498;-69
2023/05/24 07:41:50;;;;;;;10.27;3.85;;;;;;;33.89;24.89;99240.19;5031585;28;20148;-70
2023/05/24 07:44:15;;;;;;;8.55;4.30;;;;;;;33.53;25.40;99228.50;5031937;28;20124;-69
2023/05/24 07:46:41;;;;;;;7.47;4.10;;;;;;;33.51;25.67;99228.00;5042383;28;20387;-68
2023/05/24 07:49:07;;;;;;;11.93;4.40;;;;;;;33.25;25.87;99218.75;5051702;28;20045;-70
2023/05/24 07:51:33;;;;;;;14.43;4.85;;;;;;;33.27;25.74;99233.03;5034048;28;20131;-69
2023/05/24 07:53:59;;;;;;;12.68;4.68;;;;;;;33.03;26.47;99221.56;5050440;28;20047;-71
2023/05/24 07:56:25;;;;;;;13.52;4.60;;;;;;;33.19;26.81;99234.63;5052735;28;20151;-70
2023/05/24 07:58:51;;;;;;;11.75;4.30;;;;;;;33.23;26.50;99230.09;5052943;28;20242;-69
2023/05/24 08:01:19;;;;;;;11.60;4.45;;;;;;;33.37;26.58;99232.75;5050962;28;20044;-71
2023/05/24 08:03:45;;;;;;;13.75;4.63;;;;;;;33.04;26.48;99220.44;5051270;28;20150;-70
2023/05/24 08:06:11;;;;;;;19.83;4.82;;;;;;;33.08;26.60;99226.91;5051711;28;20123;-71
2023/05/24 08:08:38;;;;;;;11.40;4.50;;;;;;;33.22;26.39;99231.22;5050804;28;20037;-71
2023/05/24 08:11:04;;;;;;;11.88;4.50;;;;;;;33.13;26.55;99241.38;5049389;28;20064;-68
2023/05/24 08:13:30;;;;;;;8.30;4.10;;;;;;;33.20;26.91;99232.69;5048487;28;20047;-68
2023/05/24 08:15:57;;;;;;;9.70;4.70;;;;;;;33.18;26.47;99245.94;5031357;28;20071;-70
2023/05/24 08:18:22;;;;;;;12.15;4.90;;;;;;;33.14;26.81;99237.50;5048335;28;20037;-69
2023/05/24 08:20:48;;;;;;;13.85;4.63;;;;;;;33.22;26.50;99246.94;5049325;28;20052;-69
2023/05/24 08:23:14;;;;;;;13.57;5.43;;;;;;;32.93;26.95;99241.06;5018289;28;20136;-70
2023/05/24 08:25:39;;;;;;;11.40;4.97;;;;;;;32.91;26.92;99235.06;5051251;28;20063;-69
2023/05/24 08:28:05;;;;;;;11.05;4.43;;;;;;;32.75;27.07;99239.31;5050951;28;20079;-70
2023/05/24 08:30:31;;;;;;;12.57;4.57;;;;;;;32.82;27.18;99235.00;5050879;28;20122;-69
2023/05/24 08:32:57;;;;;;;15.68;4.75;;;;;;;32.94;27.05;99239.97;5033602;28;20118;-69
2023/05/24 08:35:23;;;;;;;11.27;4.60;;;;;;;33.07;26.75;99237.13;5049902;28;20422;-69
2023/05/24 08:37:49;;;;;;;17.58;4.68;;;;;;;33.27;26.73;99244.03;5049733;28;20045;-69
2023/05/24 08:40:15;;;;;;;14.40;4.72;;;;;;;33.24;26.73;99234.50;5033419;28;20048;-69
2023/05/24 08:42:41;;;;;;;15.70;5.18;;;;;;;33.24;26.72;99233.66;5050139;28;20541;-69
2023/05/24 08:45:10;;;;;;;13.80;4.88;;;;;;;33.68;26.35;99236.31;5050048;28;20045;-71
2023/05/24 08:47:37;;;;;;;12.32;4.45;;;;;;;34.14;26.03;99242.16;5050801;28;20114;-68
2023/05/24 08:50:05;;;;;;;15.30;5.05;;;;;;;33.91;25.88;99243.41;5033043;28;20041;-68
2023/05/24 08:52:31;;;;;;;12.80;4.40;;;;;;;34.50;25.22;99237.22;5050552;28;20044;-70
2023/05/24 08:54:58;;;;;;;14.10;4.60;;;;;;;34.80;24.65;99240.94;5049485;28;20437;-69
2023/05/24 08:57:26;;;;;;;9.55;4.78;;;;;;;34.76;24.52;99242.72;5049771;28;20049;-67
2023/05/24 08:59:54;;;;;;;8.88;4.55;;;;;;;35.00;24.62;99246.63;5049773;28;20421;-68
2023/05/24 09:02:20;;;;;;;16.30;5.20;;;;;;;35.64;23.50;99231.66;5049695;28;20036;-67
2023/05/24 09:04:48;;;;;;;16.90;4.70;;;;;;;36.40;23.09;99239.88;5033187;28;20132;-69
2023/05/24 09:07:17;;;;;;;14.35;4.47;;;;;;;36.75;22.71;99247.59;5050762;28;20090;-71
2023/05/24 09:09:46;;;;;;;9.65;4.20;;;;;;;37.21;22.18;99239.03;5050954;28;20052;-72
2023/05/24 09:12:15;;;;;;;8.65;3.97;;;;;;;37.64;21.04;99252.41;5050144;28;20471;-71
2023/05/24 09:14:48;;;;;;;9.40;4.18;;;;;;;37.56;20.98;99250.53;5033177;28;20048;-72
2023/05/24 09:17:14;;;;;;;21.73;4.35;;;;;;;37.52;20.95;99251.56;5050965;28;20053;-71
2023/05/24 09:19:45;;;;;;;9.75;4.10;;;;;;;37.10;21.36;99248.09;5050824;28;20497;-72
2023/05/24 09:22:18;;;;;;;24.08;4.60;;;;;;;37.17;21.40;99251.91;5050846;28;20037;-72
2023/05/24 09:25:00;;;;;;;17.73;4.32;;;;;;;37.72;21.00;99254.25;5049430;28;20045;-72
2023/05/24 09:27:26;;;;;;;18.40;4.47;;;;;;;38.01;20.55;99251.25;5050683;28;20382;-72
2023/05/24 09:29:52;;;;;;;15.48;4.78;;;;;;;38.99;19.70;99244.38;5032921;28;20055;-73
2023/05/24 09:32:22;;;;;;;9.80;3.97;;;;;;;40.96;17.65;99244.47;5049410;28;20041;-73
2023/05/24 09:34:53;;;;;;;13.13;3.80;;;;;;;42.68;16.28;99245.44;5052878;28;20118;-73
2023/05/24 09:37:21;;;;;;;14.63;4.38;;;;;;;44.39;14.88;99265.16;5053733;28;20041;-74
2023/05/24 09:39:49;;;;;;;13.40;4.05;;;;;;;45.25;13.97;99245.53;5054064;28;20056;-75
2023/05/24 09:42:22;;;;;;;20.85;3.63;;;;;;;46.46;12.73;99252.75;5054423;28;20037;-74
2023/05/24 09:45:05;;;;;;;10.18;3.42;;;;;;;46.58;12.34;99250.34;5037182;28;20486;-74
2023/05/24 09:47:33;;;;;;;6.82;3.30;;;;;;;45.66;12.94;99248.78;5052953;28;20099;-74
2023/05/24 09:50:01;;;;;;;27.33;4.13;;;;;;;44.31;14.22;99241.09;5035975;28;20041;-72
2023/05/24 09:52:28;;;;;;;7.57;3.20;;;;;;;42.64;15.31;99235.41;5053636;28;20414;-73
2023/05/24 09:54:54;;;;;;;9.38;3.28;;;;;;;42.69;15.64;99238.66;5053719;28;20549;-72
2023/05/24 09:57:24;;;;;;;11.80;3.90;;;;;;;42.14;15.87;99235.84;5052842;28;20040;-73
2023/05/24 09:59:51;;;;;;;12.13;3.55;;;;;;;41.60;16.58;99231.41;5052399;28;20045;-72
2023/05/24 10:02:19;;;;;;;10.50;4.13;;;;;;;40.14;17.32;99232.72;5053895;28;20123;-73
2023/05/24 10:04:45;;;;;;;11.48;3.72;;;;;;;39.96;17.90;99237.06;5052497;28;20131;-72
2023/05/24 10:07:12;;;;;;;15.68;3.40;;;;;;;40.24;17.88;99234.94;5053854;28;20052;-72
2023/05/24 10:09:37;;;;;;;9.18;3.00;;;;;;;40.70;17.33;99245.16;5052432;28;20037;-73
2023/05/24 10:12:05;;;;;;;11.40;3.33;;;;;;;41.17;16.81;99231.78;5052085;28;20079;-72
2023/05/24 10:14:32;;;;;;;11.68;2.92;;;;;;;41.19;16.68;99240.59;5053846;28;20443;-74
2023/05/24 10:16:58;;;;;;;9.75;2.92;;;;;;;41.06;17.14;99241.09;5053492;28;20049;-72
2023/05/24 10:19:24;;;;;;;10.82;3.00;;;;;;;40.86;16.96;99248.66;5052597;28;20040;-72
2023/05/24 10:21:51;;;;;;;11.85;3.45;;;;;;;40.56;17.58;99247.63;5053642;28;20051;-72
2023/05/24 10:24:18;;;;;;;11.45;3.65;;;;;;;40.31;17.98;99245.44;5053900;28;20464;-72
2023/05/24 10:26:47;;;;;;;13.02;3.63;;;;;;;39.75;18.30;99240.09;5055048;28;20073;-72
2023/05/24 10:29:24;;;;;;;15.57;3.45;;;;;;;39.30;18.64;99252.78;5053148;28;20045;-71
2023/05/24 10:31:51;;;;;;;11.55;3.75;;;;;;;38.62;19.33;99263.13;5053250;28;20044;-74
2023/05/24 10:34:17;;;;;;;19.38;3.65;;;;;;;37.77;20.08;99248.50;5055932;28;20040;-72
2023/05/24 10:36:43;;;;;;;7.57;3.35;;;;;;;37.77;20.08;99259.59;5054227;28;20541;-71
2023/05/24 10:39:12;;;;;;;14.13;3.65;;;;;;;38.21;19.86;99258.66;5055999;28;20036;-74
2023/05/24 10:41:40;;;;;;;11.57;3.42;;;;;;;38.99;19.42;99247.97;5053183;28;20045;-74
2023/05/24 10:44:11;;;;;;;9.27;3.17;;;;;;;39.18;18.87;99266.75;5052245;28;20165;-73
2023/05/24 10:47:12;;;;;;;8.98;3.20;;;;;;;39.05;18.95;99252.13;5052209;28;20048;-74
2023/05/24 10:49:52;;;;;;;14.98;3.55;;;;;;;39.13;19.49;99261.44;5052199;28;20462;-73
2023/05/24 10:52:18;;;;;;;14.88;4.10;;;;;;;39.25;19.33;99262.19;5051858;28;20171;-73
2023/05/24 10:55:06;;;;;;;9.93;3.80;;;;;;;40.18;18.73;99269.78;5035354;28;20195;-72
2023/05/24 10:57:32;;;;;;;12.65;4.18;;;;;;;40.26;18.27;99271.59;5035571;28;20040;-74
2023/05/24 11:00:24;;;;;;;14.43;4.22;;;;;;;40.78;18.00;99271.19;5051451;28;20390;-70
2023/05/24 11:02:53;;;;;;;14.95;4.97;;;;;;;39.80;18.93;99277.94;5019283;28;20044;-74
2023/05/24 11:05:45;;;;;;;13.27;4.35;;;;;;;38.74;19.50;99275.00;5051795;28;20103;-75
2023/05/24 11:08:12;;;;;;;15.23;4.90;;;;;;;37.71;20.58;99265.69;5019003;28;20053;-74
2023/05/24 11:10:37;;;;;;;14.32;4.75;;;;;;;37.17;21.23;99260.22;5051759;28;20151;-75
2023/05/24 11:13:06;;;;;;;30.13;5.10;;;;;;;36.89;22.29;99255.63;5051939;28;20926;-74
2023/05/24 11:15:33;;;;;;;15.45;4.50;;;;;;;36.86;22.26;99275.66;5051501;28;20045;-74
2023/05/24 11:18:11;;;;;;;11.00;4.70;;;;;;;37.10;22.16;99271.03;5055686;28;20033;-74
2023/05/24 11:20:38;;;;;;;16.98;4.72;;;;;;;36.80;22.91;99261.25;5055998;28;20131;-74
2023/05/24 11:23:10;;;;;;;16.10;4.35;;;;;;;36.59;23.11;99263.19;5018950;28;20041;-74
2023/05/24 11:25:37;;;;;;;14.73;4.38;;;;;;;36.40;23.32;99273.06;5051562;28;20405;-74
2023/05/24 11:28:08;;;;;;;9.88;4.63;;;;;;;36.13;23.65;99276.31;5050994;28;20048;-73
2023/05/24 11:30:45;;;;;;;9.80;4.03;;;;;;;35.96;23.36;99262.59;5051149;28;20159;-73